Time;durP1;ratioP1;P1;durP2;ratioP2;P2;SDS_P1;SDS_P2;PMS_P1;PMS_P2;Temp;Humidity;BMP_temperature;BMP_pressure;BME280_temperature;BME280_humidity;BME280_pressure;Samples;Min_cycle;Max_cycle;Signal;HPM_P1;HPM_P2
2022/08/03 00:01:23;;;;;;;4.25;2.15;;;;;;;22.80;48.02;94682.78;4189287;28;20106;-49
2022/08/03 00:03:25;;;;;;;3.17;1.92;;;;;;;22.80;48.14;94676.59;4183835;28;20049;-47
2022/08/03 00:05:27;;;;;;;2.40;1.50;;;;;;;22.83;47.96;94682.28;4173999;28;20048;-47
2022/08/03 00:07:28;;;;;;;1.98;1.08;;;;;;;22.83;47.50;94687.63;4192363;28;20087;-46
2022/08/03 00:09:30;;;;;;;2.20;1.50;;;;;;;22.81;47.68;94678.22;4187658;28;20468;-47
2022/08/03 00:11:36;;;;;;;4.63;1.60;;;;;;;22.79;48.15;94683.78;4188428;28;20060;-49
2022/08/03 00:13:38;;;;;;;3.28;1.27;;;;;;;22.72;48.71;94680.44;4183419;28;20140;-50
2022/08/03 00:15:41;;;;;;;6.13;2.80;;;;;;;22.63;48.66;94677.34;4193352;28;20057;-47
2022/08/03 00:17:43;;;;;;;3.10;2.00;;;;;;;22.59;49.16;94681.53;4167134;28;20572;-52
2022/08/03 00:19:54;;;;;;;2.17;1.63;;;;;;;22.58;49.20;94674.53;4166634;28;20368;-48
2022/08/03 00:21:56;;;;;;;1.73;1.38;;;;;;;22.55;49.21;94677.69;4192143;28;20670;-48
2022/08/03 00:23:57;;;;;;;2.70;1.55;;;;;;;22.56;48.61;94684.63;4192631;28;20040;-52
2022/08/03 00:25:59;;;;;;;3.70;2.22;;;;;;;22.55;49.11;94679.56;4183873;28;20107;-50
2022/08/03 00:28:04;;;;;;;6.28;1.48;;;;;;;22.55;49.09;94676.88;4174900;28;20048;-47
2022/08/03 00:30:09;;;;;;;5.25;1.58;;;;;;;22.53;48.89;94685.13;4176494;28;20603;-47
2022/08/03 00:32:11;;;;;;;3.55;1.50;;;;;;;22.49;49.61;94684.75;4191283;28;20053;-48
2022/08/03 00:34:13;;;;;;;3.20;1.43;;;;;;;22.40;49.51;94685.38;4192797;28;20269;-50
2022/08/03 00:36:16;;;;;;;2.28;1.63;;;;;;;22.32;49.60;94685.72;4192249;28;20163;-49
2022/08/03 00:38:18;;;;;;;3.33;1.40;;;;;;;22.24;49.33;94682.34;4192283;22;20130;-68
2022/08/03 00:40:20;;;;;;;2.80;1.70;;;;;;;22.08;49.52;94673.13;4161292;28;20111;-69
2022/08/03 00:42:22;;;;;;;4.22;1.65;;;;;;;22.01;50.02;94669.78;4175307;28;20759;-69
2022/08/03 00:44:29;;;;;;;4.93;1.63;;;;;;;22.05;50.11;94672.81;4168855;28;20081;-68
2022/08/03 00:46:31;;;;;;;2.78;1.52;;;;;;;22.10;49.76;94675.59;4167054;28;20064;-67
2022/08/03 00:48:33;;;;;;;2.10;1.30;;;;;;;22.14;49.99;94675.94;4174379;28;20045;-67
2022/08/03 00:50:39;;;;;;;4.30;1.55;;;;;;;22.12;49.92;94676.16;4170478;28;20052;-67
2022/08/03 00:52:41;;;;;;;3.50;1.58;;;;;;;22.10;49.75;94675.59;4174996;28;20095;-69
2022/08/03 00:54:42;;;;;;;2.88;1.98;;;;;;;22.08;50.12;94673.13;4174289;28;20045;-69
2022/08/03 00:56:44;;;;;;;3.70;1.58;;;;;;;22.12;50.18;94675.38;4175990;28;20207;-67
2022/08/03 00:59:02;;;;;;;4.47;1.80;;;;;;;22.15;50.00;94677.56;4176897;28;20120;-69
2022/08/03 01:01:05;;;;;;;4.70;1.50;;;;;;;22.15;49.97;94674.88;4170284;28;20481;-69
2022/08/03 01:03:09;;;;;;;4.43;2.03;;;;;;;22.09;50.65;94664.09;4157553;28;20099;-69
2022/08/03 01:05:11;;;;;;;4.65;2.00;;;;;;;22.05;50.75;94670.13;4147807;28;20120;-68
2022/08/03 01:07:51;;;;;;;3.85;1.88;;;;;;;21.98;50.97;94666.75;4185434;28;20055;-68
2022/08/03 01:10:21;;;;;;;3.17;2.28;;;;;;;21.96;51.48;94669.66;4157373;28;20045;-70
2022/08/03 01:12:38;;;;;;;6.22;2.15;;;;;;;21.94;52.13;94670.91;4160129;28;20057;-68
2022/08/03 01:15:20;;;;;;;3.65;1.77;;;;;;;21.90;52.54;94675.91;4187163;28;20087;-68
2022/08/03 01:17:30;;;;;;;3.42;2.30;;;;;;;21.78;53.02;94667.09;4098267;28;20065;-67
2022/08/03 01:19:44;;;;;;;4.50;1.90;;;;;;;21.70;52.94;94664.75;4160090;28;20095;-69
2022/08/03 01:22:11;;;;;;;3.85;2.25;;;;;;;21.72;52.91;94668.81;4163533;28;20106;-67
2022/08/03 01:24:36;;;;;;;3.13;2.05;;;;;;;21.77;52.77;94657.44;4164822;28;20053;-69
2022/08/03 01:26:49;;;;;;;3.30;1.75;;;;;;;21.77;52.61;94666.28;4154350;28;20058;-69
2022/08/03 01:28:57;;;;;;;4.25;2.40;;;;;;;21.70;52.84;94659.41;4139021;28;20467;-69
2022/08/03 01:31:07;;;;;;;4.30;2.17;;;;;;;21.62;53.21;94660.56;4186693;28;20055;-67
2022/08/03 01:33:16;;;;;;;4.18;1.90;;;;;;;21.42;52.49;94671.50;4140202;28;20148;-68
2022/08/03 01:35:43;;;;;;;3.38;1.30;;;;;;;21.15;51.92;94669.19;4150629;28;20052;-68
2022/08/03 01:37:59;;;;;;;3.33;1.60;;;;;;;20.65;53.24;94672.88;4163785;28;20061;-68
2022/08/03 01:40:02;;;;;;;3.08;1.50;;;;;;;20.46;53.89;94668.56;4156486;28;20577;-68
2022/08/03 01:42:06;;;;;;;3.30;1.30;;;;;;;20.30;54.47;94667.25;4175617;28;20051;-68
2022/08/03 01:44:10;;;;;;;4.35;1.73;;;;;;;20.22;55.02;94672.91;4156834;28;20057;-68
2022/08/03 01:46:31;;;;;;;4.70;1.75;;;;;;;20.26;54.85;94674.06;4160647;28;20059;-67
2022/08/03 01:48:36;;;;;;;2.28;1.60;;;;;;;19.76;56.10;94676.75;4175787;28;20065;-67
2022/08/03 01:50:39;;;;;;;3.55;1.70;;;;;;;19.73;56.47;94677.19;4158615;28;20136;-66
2022/08/03 01:52:41;;;;;;;3.95;1.65;;;;;;;19.76;56.71;94676.75;4176210;28;20431;-68
2022/08/03 01:54:45;;;;;;;2.97;2.00;;;;;;;19.81;56.62;94669.78;4156760;28;20432;-69
2022/08/03 01:56:48;;;;;;;3.00;1.60;;;;;;;19.91;56.33;94676.44;4151278;28;20455;-68
2022/08/03 01:58:52;;;;;;;3.65;1.90;;;;;;;19.89;56.38;94673.19;4152230;28;20053;-69
2022/08/03 02:00:58;;;;;;;3.60;1.95;;;;;;;20.00;56.01;94675.13;4156379;28;20463;-69
2022/08/03 02:03:00;;;;;;;4.13;2.00;;;;;;;20.05;55.73;94670.78;4143812;28;20057;-70
2022/08/03 02:05:06;;;;;;;4.10;1.92;;;;;;;20.20;55.62;94672.31;4157791;28;20041;-70
2022/08/03 02:07:13;;;;;;;3.85;1.75;;;;;;;20.41;54.98;94673.72;4156406;28;20092;-69
2022/08/03 02:09:15;;;;;;;3.08;1.70;;;;;;;20.58;54.29;94679.28;4157875;28;20045;-69
2022/08/03 02:11:17;;;;;;;2.80;1.77;;;;;;;20.71;54.02;94673.81;4156218;28;20061;-70
2022/08/03 02:13:20;;;;;;;4.90;1.95;;;;;;;20.82;53.70;94673.09;4178653;28;20424;-71
2022/08/03 02:15:22;;;;;;;2.00;1.50;;;;;;;20.91;53.64;94670.94;4160378;28;20581;-69
2022/08/03 02:17:25;;;;;;;3.60;1.52;;;;;;;20.99;53.43;94677.78;4160585;28;20049;-69
2022/08/03 02:19:42;;;;;;;3.00;1.80;;;;;;;21.01;53.29;94673.06;4162017;28;20061;-71
2022/08/03 02:21:45;;;;;;;2.55;1.90;;;;;;;21.02;53.47;94670.19;4160549;28;20133;-69
2022/08/03 02:24:03;;;;;;;5.72;2.00;;;;;;;21.04;53.31;94672.63;4170439;28;20048;-68
2022/08/03 02:26:08;;;;;;;3.58;1.70;;;;;;;21.02;53.27;94667.50;4143733;28;20109;-69
2022/08/03 02:28:12;;;;;;;4.47;1.90;;;;;;;21.06;53.03;94670.56;4144315;28;20060;-69
2022/08/03 02:30:14;;;;;;;3.10;1.77;;;;;;;21.04;53.05;94669.97;4146918;28;20128;-68
2022/08/03 02:32:19;;;;;;;4.95;1.92;;;;;;;21.01;53.22;94668.53;4155853;28;20070;-68
2022/08/03 02:34:23;;;;;;;3.90;2.20;;;;;;;21.04;53.16;94669.97;4168630;28;20109;-69
2022/08/03 02:36:28;;;;;;;2.25;1.80;;;;;;;21.08;52.90;94665.81;4172270;28;20592;-69
2022/08/03 02:38:35;;;;;;;4.15;1.88;;;;;;;21.10;52.82;94665.56;4159122;28;20063;-68
2022/08/03 02:40:37;;;;;;;2.80;1.70;;;;;;;21.11;52.82;94667.22;4147598;28;20457;-67
2022/08/03 02:42:40;;;;;;;5.03;1.73;;;;;;;21.12;52.61;94668.81;4156077;28;20165;-68
2022/08/03 02:44:46;;;;;;;8.43;1.87;;;;;;;21.15;52.71;94663.88;4153764;28;20049;-68
2022/08/03 02:46:48;;;;;;;4.50;2.22;;;;;;;21.15;52.82;94660.41;4157276;28;20052;-68
2022/08/03 02:48:51;;;;;;;5.03;2.25;;;;;;;21.09;53.14;94664.75;4143639;28;20054;-69
2022/08/03 02:50:56;;;;;;;8.43;2.00;;;;;;;20.96;53.48;94660.41;4147815;28;20168;-70
2022/08/03 02:53:00;;;;;;;4.78;2.03;;;;;;;20.78;53.99;94663.94;4156931;28;20049;-69
2022/08/03 02:55:03;;;;;;;4.72;2.10;;;;;;;20.71;54.39;94668.50;4159747;28;20045;-69
2022/08/03 02:57:09;;;;;;;4.68;2.30;;;;;;;20.67;54.46;94659.31;4160102;28;20059;-68
2022/08/03 02:59:11;;;;;;;4.93;2.20;;;;;;;20.66;54.40;94665.69;4175437;28;20052;-68
2022/08/03 03:01:13;;;;;;;3.30;2.25;;;;;;;20.66;54.77;94665.69;4143781;28;20054;-69
2022/08/03 03:03:15;;;;;;;5.57;2.28;;;;;;;20.62;54.83;94673.31;4159804;28;20318;-67
2022/08/03 03:05:20;;;;;;;4.32;2.10;;;;;;;20.55;55.02;94669.88;4159574;28;20444;-69
2022/08/03 03:07:42;;;;;;;4.75;2.05;;;;;;;20.60;55.08;94671.91;4156788;28;20343;-67
2022/08/03 03:09:53;;;;;;;3.85;2.15;;;;;;;20.70;54.87;94666.88;4150586;28;20124;-69
2022/08/03 03:11:55;;;;;;;6.35;2.20;;;;;;;20.76;54.73;94675.84;4153286;28;20529;-70
2022/08/03 03:13:57;;;;;;;7.40;2.60;;;;;;;20.66;55.22;94681.66;4156283;28;20053;-67
2022/08/03 03:16:00;;;;;;;3.47;2.30;;;;;;;20.48;55.42;94679.78;4160184;28;20061;-68
2022/08/03 03:18:02;;;;;;;5.18;2.10;;;;;;;20.45;55.75;94685.53;4159717;28;20498;-69
2022/08/03 03:20:05;;;;;;;4.70;2.28;;;;;;;20.44;55.70;94694.56;4139586;28;20043;-68
2022/08/03 03:22:07;;;;;;;3.13;2.20;;;;;;;20.52;55.66;94691.63;4136229;28;20100;-68
2022/08/03 03:24:09;;;;;;;5.38;2.25;;;;;;;20.62;55.63;94693.78;4149293;28;20056;-68
2022/08/03 03:26:13;;;;;;;3.65;2.35;;;;;;;20.71;55.42;94689.78;4157888;28;20057;-68
2022/08/03 03:28:15;;;;;;;4.13;2.50;;;;;;;20.80;54.96;94698.28;4159695;28;20053;-68
2022/08/03 03:30:17;;;;;;;3.88;2.05;;;;;;;20.86;54.79;94700.06;4159857;28;20045;-70
2022/08/03 03:32:19;;;;;;;4.45;1.98;;;;;;;20.92;54.60;94701.84;4175771;28;20052;-68
2022/08/03 03:34:21;;;;;;;5.10;2.38;;;;;;;20.95;54.65;94703.25;4176859;28;20083;-69
2022/08/03 03:36:24;;;;;;;4.20;2.38;;;;;;;20.95;54.59;94700.56;4159354;28;20050;-68
2022/08/03 03:38:26;;;;;;;4.45;2.58;;;;;;;20.96;54.54;94703.03;4158575;28;20049;-70
2022/08/03 03:40:28;;;;;;;4.47;2.67;;;;;;;21.01;54.38;94705.00;4147300;28;20120;-68
2022/08/03 03:42:30;;;;;;;8.68;2.88;;;;;;;21.05;54.49;94706.19;4161189;28;20053;-68
2022/08/03 03:44:31;;;;;;;5.38;2.53;;;;;;;21.09;54.57;94712.69;4152265;28;20057;-70
2022/08/03 03:46:33;;;;;;;4.07;2.47;;;;;;;21.15;54.55;94706.47;4168827;28;20360;-68
2022/08/03 03:48:35;;;;;;;4.65;2.50;;;;;;;21.19;54.42;94714.84;4160101;28;20053;-68
2022/08/03 03:50:39;;;;;;;4.07;2.33;;;;;;;21.22;54.51;94712.53;4160148;28;20092;-67
2022/08/03 03:52:41;;;;;;;4.78;2.72;;;;;;;21.23;54.42;94714.16;4156900;28;20072;-68
2022/08/03 03:54:44;;;;;;;4.50;2.75;;;;;;;21.22;54.33;94709.88;4150663;28;20750;-67
2022/08/03 03:56:46;;;;;;;5.90;2.40;;;;;;;21.22;54.35;94709.88;4159541;28;20160;-67
2022/08/03 03:58:48;;;;;;;4.68;2.40;;;;;;;21.22;54.09;94711.72;4160758;28;20472;-69
2022/08/03 04:00:50;;;;;;;5.18;2.60;;;;;;;21.18;54.19;94711.34;4158485;28;20057;-68
2022/08/03 04:02:51;;;;;;;3.30;2.60;;;;;;;21.18;54.25;94716.69;4163629;28;20124;-70
2022/08/03 04:12:00;;;;;;;7.97;2.88;;;;;;;21.15;53.67;94709.16;4166641;28;20350;-69
2022/08/03 04:14:10;;;;;;;5.80;2.95;;;;;;;21.24;53.67;94705.13;4154728;28;20132;-67
2022/08/03 04:16:14;;;;;;;5.15;2.88;;;;;;;21.26;53.29;94703.06;4172858;28;20071;-72
2022/08/03 04:18:16;;;;;;;6.03;2.92;;;;;;;21.32;53.34;94705.88;4175299;28;20194;-70
2022/08/03 04:20:19;;;;;;;8.55;2.95;;;;;;;21.34;53.02;94707.25;4158387;28;20401;-69
2022/08/03 04:22:27;;;;;;;6.40;2.53;;;;;;;21.42;52.96;94712.31;4157829;28;20084;-68
2022/08/03 04:24:33;;;;;;;4.63;2.90;;;;;;;21.46;52.70;94718.78;4159475;28;20046;-68
2022/08/03 04:26:39;;;;;;;5.88;2.72;;;;;;;21.54;52.51;94706.22;4149512;28;20050;-68
2022/08/03 04:28:44;;;;;;;8.80;3.00;;;;;;;21.58;52.45;94708.19;4159943;28;20073;-67
2022/08/03 04:30:49;;;;;;;6.88;3.15;;;;;;;21.61;52.51;94706.91;4158840;28;20053;-68
2022/08/03 04:32:52;;;;;;;5.68;2.90;;;;;;;21.62;52.55;94709.38;4158770;28;20578;-67
2022/08/03 04:34:54;;;;;;;10.02;2.90;;;;;;;21.66;52.21;94702.53;4159213;28;20049;-68
2022/08/03 04:37:02;;;;;;;6.63;2.92;;;;;;;21.70;52.33;94715.41;4158257;28;20049;-68
2022/08/03 04:39:07;;;;;;;5.68;2.83;;;;;;;21.71;52.46;94711.72;4148904;28;20100;-68
2022/08/03 04:41:10;;;;;;;5.78;3.08;;;;;;;21.80;52.06;94715.66;4158035;28;20076;-68
2022/08/03 04:43:14;;;;;;;6.63;3.63;;;;;;;21.72;52.39;94711.47;4159553;28;20080;-68
2022/08/03 04:45:16;;;;;;;5.35;3.33;;;;;;;21.74;52.69;94713.91;4155272;28;20456;-67
2022/08/03 04:47:18;;;;;;;11.35;3.15;;;;;;;21.77;52.31;94716.94;4157370;28;20045;-68
2022/08/03 04:49:21;;;;;;;7.45;3.25;;;;;;;21.66;52.85;94723.88;4158377;28;20046;-68
2022/08/03 04:51:24;;;;;;;10.77;4.05;;;;;;;21.64;53.20;94727.81;4154083;28;20153;-70
2022/08/03 04:53:25;;;;;;;10.35;3.53;;;;;;;21.59;53.26;94730.31;4150401;28;20045;-68
2022/08/03 04:55:32;;;;;;;7.63;4.00;;;;;;;21.60;53.49;94718.63;4155995;28;20050;-69
2022/08/03 04:57:34;;;;;;;6.63;3.35;;;;;;;21.65;53.45;94726.75;4157950;28;20731;-67
2022/08/03 04:59:36;;;;;;;8.98;3.58;;;;;;;21.70;53.32;94728.72;4158554;28;20049;-68
2022/08/03 05:01:41;;;;;;;7.18;3.50;;;;;;;21.75;53.41;94731.53;4160099;28;20385;-69
2022/08/03 05:03:43;;;;;;;6.63;3.40;;;;;;;21.68;53.47;94737.78;4159666;28;20583;-69
2022/08/03 05:05:44;;;;;;;5.25;3.25;;;;;;;21.39;54.04;94739.38;4142084;28;20038;-67
2022/08/03 05:07:51;;;;;;;5.65;3.25;;;;;;;21.33;54.12;94742.13;4157265;28;20550;-67
2022/08/03 05:09:53;;;;;;;5.05;3.45;;;;;;;21.30;54.47;94737.25;4157704;28;20053;-67
2022/08/03 05:12:05;;;;;;;4.95;3.45;;;;;;;21.19;54.56;94744.16;4159557;28;20049;-68
2022/08/03 05:14:06;;;;;;;5.97;3.92;;;;;;;21.23;54.56;94746.13;4158375;28;20050;-68
2022/08/03 05:16:08;;;;;;;9.27;3.92;;;;;;;21.30;54.35;94742.59;4157703;28;20069;-69
2022/08/03 05:18:10;;;;;;;9.70;3.63;;;;;;;21.23;54.30;94755.97;4139335;28;20646;-69
2022/08/03 05:20:14;;;;;;;8.88;4.00;;;;;;;21.30;54.42;94753.25;4144870;28;20061;-67
2022/08/03 05:22:20;;;;;;;5.50;3.30;;;;;;;21.39;54.05;94755.34;4150567;28;20463;-67
2022/08/03 05:24:21;;;;;;;9.82;3.90;;;;;;;21.55;53.76;94759.25;4151507;28;20057;-67
2022/08/03 05:26:23;;;;;;;7.35;3.55;;;;;;;21.71;53.42;94757.03;4158011;28;20138;-68
2022/08/03 05:28:27;;;;;;;5.18;3.35;;;;;;;21.92;53.04;94759.19;4144940;28;20116;-69
2022/08/03 05:30:29;;;;;;;4.28;3.47;;;;;;;21.92;52.99;94758.34;4141822;28;20136;-67
2022/08/03 05:32:34;;;;;;;10.35;3.83;;;;;;;21.80;53.06;94756.47;4143255;28;20061;-69
2022/08/03 05:34:36;;;;;;;5.18;3.83;;;;;;;21.75;53.68;94760.88;4156236;28;20057;-67
2022/08/03 05:36:38;;;;;;;6.68;4.10;;;;;;;21.88;53.26;94752.69;4158283;28;20048;-68
2022/08/03 05:38:40;;;;;;;8.15;3.90;;;;;;;22.05;52.85;94761.63;4160063;28;20080;-69
2022/08/03 05:40:42;;;;;;;7.88;3.72;;;;;;;22.23;52.54;94758.09;4156716;28;20056;-68
2022/08/03 05:42:58;;;;;;;9.35;4.38;;;;;;;22.28;52.37;94762.75;4175256;28;20057;-68
2022/08/03 05:45:11;;;;;;;11.63;4.45;;;;;;;22.33;52.52;94770.06;4158447;28;20129;-67
2022/08/03 05:47:13;;;;;;;6.93;4.35;;;;;;;22.03;52.80;94768.25;4143846;28;20050;-70
2022/08/03 05:49:15;;;;;;;7.07;4.07;;;;;;;21.87;52.96;94775.03;4170745;28;20054;-69
2022/08/03 05:51:17;;;;;;;8.00;4.65;;;;;;;21.67;53.66;94770.78;4165848;28;20073;-69
2022/08/03 05:53:19;;;;;;;10.35;4.82;;;;;;;21.72;54.14;94767.44;4156729;28;20093;-69
2022/08/03 05:55:21;;;;;;;7.55;4.63;;;;;;;21.84;53.76;94762.16;4170824;28;20048;-69
2022/08/03 05:57:24;;;;;;;12.05;4.30;;;;;;;22.04;53.54;94767.19;4157661;28;20091;-68
2022/08/03 05:59:25;;;;;;;8.27;5.10;;;;;;;22.28;52.60;94763.56;4157775;28;20049;-67
2022/08/03 06:01:39;;;;;;;12.07;5.47;;;;;;;22.54;52.06;94772.16;4142839;28;20338;-68
2022/08/03 06:03:41;;;;;;;8.52;4.70;;;;;;;22.65;51.86;94770.53;4159665;28;20325;-67
2022/08/03 06:05:42;;;;;;;7.20;4.90;;;;;;;22.74;51.56;94766.50;4158454;28;20057;-67
2022/08/03 06:08:02;;;;;;;8.35;4.22;;;;;;;22.88;51.50;94769.72;4162428;28;20083;-68
2022/08/03 06:10:04;;;;;;;10.48;4.88;;;;;;;23.04;51.24;94771.72;4174787;28;20057;-68
2022/08/03 06:12:26;;;;;;;10.05;4.32;;;;;;;23.15;50.97;94772.75;4149354;28;20103;-69
2022/08/03 06:14:27;;;;;;;6.93;4.63;;;;;;;23.24;50.37;94771.31;4172406;28;20438;-69
2022/08/03 06:16:29;;;;;;;10.45;4.78;;;;;;;23.24;49.99;94768.63;4157374;28;20108;-69
2022/08/03 06:18:31;;;;;;;8.32;4.60;;;;;;;23.24;49.87;94774.00;4165790;28;20053;-69
2022/08/03 06:20:33;;;;;;;5.57;4.25;;;;;;;22.97;50.15;94770.16;4175538;28;20060;-68
2022/08/03 06:22:35;;;;;;;6.00;4.65;;;;;;;22.75;50.50;94770.78;4174310;28;20049;-69
2022/08/03 06:24:51;;;;;;;9.77;5.00;;;;;;;22.72;51.64;94773.13;4164849;28;20056;-68
2022/08/03 06:26:55;;;;;;;8.00;4.50;;;;;;;22.83;50.83;94764.28;4175670;28;20041;-68
2022/08/03 06:28:57;;;;;;;8.70;4.70;;;;;;;22.94;50.42;94776.00;4167837;28;20050;-67
2022/08/03 06:31:00;;;;;;;9.65;4.47;;;;;;;23.01;50.33;94776.69;4171229;28;20454;-69
2022/08/03 06:33:02;;;;;;;7.22;4.90;;;;;;;23.20;49.74;94775.50;4174879;28;20053;-67
2022/08/03 06:35:09;;;;;;;8.60;4.25;;;;;;;23.25;49.42;94772.94;4162617;28;20154;-68
2022/08/03 06:37:11;;;;;;;5.82;4.40;;;;;;;23.31;49.54;94771.19;4169225;28;20452;-69
2022/08/03 06:39:13;;;;;;;7.07;4.25;;;;;;;23.43;49.09;94773.84;4150323;28;20121;-71
2022/08/03 06:41:32;;;;;;;10.57;3.80;;;;;;;23.63;48.77;94773.41;4143352;28;20108;-69
2022/08/03 06:43:38;;;;;;;7.40;4.00;;;;;;;23.84;48.49;94779.97;4157627;28;20116;-69
2022/08/03 06:46:00;;;;;;;5.65;4.00;;;;;;;24.05;48.10;94776.63;4163924;28;20048;-69
2022/08/03 06:48:11;;;;;;;9.55;4.10;;;;;;;24.24;47.74;94771.84;4175599;28;20041;-69
2022/08/03 06:50:13;;;;;;;6.75;4.00;;;;;;;24.29;46.80;94766.56;4141071;28;20141;-68
2022/08/03 06:52:19;;;;;;;5.93;3.88;;;;;;;24.20;46.45;94767.22;4173364;28;20072;-69
2022/08/03 06:54:38;;;;;;;4.28;3.08;;;;;;;24.22;45.88;94771.28;4173985;28;20049;-68
2022/08/03 06:56:40;;;;;;;6.82;3.05;;;;;;;24.30;45.85;94767.38;4167214;28;20462;-69
2022/08/03 06:58:42;;;;;;;8.80;2.67;;;;;;;24.30;45.09;94770.88;4171781;28;20057;-68
2022/08/03 07:00:44;;;;;;;8.23;3.03;;;;;;;24.29;45.23;94771.13;4176913;28;20239;-68
2022/08/03 07:02:46;;;;;;;12.32;3.40;;;;;;;23.90;45.87;94776.34;4178209;28;20048;-70
2022/08/03 07:04:48;;;;;;;7.35;3.05;;;;;;;23.61;46.10;94773.63;4159182;28;20057;-68
2022/08/03 07:06:49;;;;;;;7.07;2.80;;;;;;;23.73;46.44;94770.13;4159617;28;20454;-68
2022/08/03 07:08:51;;;;;;;4.45;2.85;;;;;;;23.90;45.98;94773.69;4177881;28;20052;-68
2022/08/03 07:10:59;;;;;;;3.55;2.63;;;;;;;24.19;45.22;94765.59;4159411;28;20061;-67
2022/08/03 07:13:01;;;;;;;5.40;2.85;;;;;;;24.41;44.98;94769.16;4160475;28;20136;-71
2022/08/03 07:15:04;;;;;;;4.68;3.25;;;;;;;24.64;44.66;94768.22;4177274;28;20044;-69
2022/08/03 07:17:06;;;;;;;7.43;2.90;;;;;;;24.80;44.19;94763.91;4177893;28;20154;-67
2022/08/03 07:19:12;;;;;;;5.18;3.53;;;;;;;24.80;44.89;94766.59;4159977;28;20084;-68
2022/08/03 07:21:15;;;;;;;8.20;4.07;;;;;;;24.53;45.70;94772.59;4175811;28;20048;-67
2022/08/03 07:23:17;;;;;;;15.45;6.03;;;;;;;24.37;46.30;94765.38;4154700;28;20075;-68
2022/08/03 07:25:20;;;;;;;10.68;4.93;;;;;;;24.51;46.37;94773.91;4155346;28;20053;-67
2022/08/03 07:27:22;;;;;;;10.52;4.63;;;;;;;24.64;46.16;94776.25;4143013;28;20100;-67
2022/08/03 07:29:24;;;;;;;7.72;3.60;;;;;;;24.66;46.08;94767.97;4143564;28;20050;-69
2022/08/03 07:31:26;;;;;;;16.00;4.88;;;;;;;24.73;45.93;94773.97;4171161;28;20053;-69
2022/08/03 07:33:34;;;;;;;6.30;3.38;;;;;;;24.57;46.38;94772.94;4177247;28;20103;-67
2022/08/03 07:35:36;;;;;;;7.57;4.20;;;;;;;24.44;46.54;94768.69;4176917;28;20056;-68
2022/08/03 07:37:38;;;;;;;5.25;3.55;;;;;;;24.21;46.70;94779.56;4176647;28;20060;-68
2022/08/03 07:39:40;;;;;;;7.18;3.92;;;;;;;24.15;46.53;94775.97;4142961;28;20057;-67
2022/08/03 07:41:41;;;;;;;7.55;2.97;;;;;;;24.21;45.91;94782.22;4161965;28;20087;-69
2022/08/03 07:43:43;;;;;;;6.05;2.97;;;;;;;24.54;45.30;94773.41;4158325;28;20144;-67
2022/08/03 07:45:45;;;;;;;9.10;3.55;;;;;;;24.91;45.20;94770.22;4177553;28;20049;-68
2022/08/03 07:47:46;;;;;;;5.63;3.17;;;;;;;25.24;44.48;94773.88;4153469;28;20038;-68
2022/08/03 07:49:54;;;;;;;8.48;3.35;;;;;;;25.49;43.39;94770.69;4171713;28;20084;-68
2022/08/03 07:54:17;;;;;;;8.18;3.33;;;;;;;24.91;44.43;94779.06;4165253;28;20061;-68
2022/08/03 07:56:18;;;;;;;8.52;4.75;;;;;;;24.90;44.18;94769.38;4172649;28;20107;-68
2022/08/03 07:58:21;;;;;;;5.82;3.60;;;;;;;25.10;43.83;94774.22;4172813;28;20048;-71
2022/08/03 08:00:24;;;;;;;5.55;2.78;;;;;;;25.30;43.88;94773.69;4177355;28;20124;-67
2022/08/03 08:02:27;;;;;;;5.50;2.70;;;;;;;25.50;42.82;94773.13;4163408;28;20109;-68
2022/08/03 08:04:29;;;;;;;5.50;2.85;;;;;;;25.30;43.03;94780.94;4157262;28;20286;-68
2022/08/03 08:06:32;;;;;;;5.55;2.70;;;;;;;25.39;42.19;94776.75;4176734;28;20495;-69
2022/08/03 08:08:34;;;;;;;6.20;2.70;;;;;;;25.38;42.16;94775.13;4176257;28;20055;-69
2022/08/03 08:10:36;;;;;;;4.68;2.40;;;;;;;25.51;41.59;94773.94;4157117;28;20042;-67
2022/08/03 08:12:39;;;;;;;4.72;2.40;;;;;;;25.62;42.05;94777.53;4177246;28;20056;-70
2022/08/03 08:14:41;;;;;;;6.40;2.55;;;;;;;25.82;41.57;94777.78;4175571;28;20472;-68
2022/08/03 08:16:43;;;;;;;4.93;2.70;;;;;;;25.88;41.70;94782.16;4163401;28;20460;-67
2022/08/03 08:18:44;;;;;;;5.30;3.15;;;;;;;26.12;41.82;94774.63;4176499;28;20508;-67
2022/08/03 08:20:46;;;;;;;5.50;3.00;;;;;;;26.34;41.33;94782.59;4176676;28;20049;-68
2022/08/03 08:22:48;;;;;;;6.47;3.00;;;;;;;26.52;41.04;94775.19;4175809;28;20059;-67
2022/08/03 08:24:52;;;;;;;4.53;2.75;;;;;;;26.66;40.43;94781.00;4174890;28;20084;-69
2022/08/03 08:26:55;;;;;;;6.97;2.80;;;;;;;26.49;39.62;94781.09;4163480;28;20050;-69
2022/08/03 08:28:57;;;;;;;4.10;2.50;;;;;;;26.53;40.29;94779.53;4177117;28;20095;-68
2022/08/03 08:31:00;;;;;;;6.10;2.92;;;;;;;26.24;39.59;94777.16;4158527;28;20051;-67
2022/08/03 08:33:02;;;;;;;4.25;2.40;;;;;;;26.21;39.96;94783.00;4158573;28;20069;-68
2022/08/03 08:35:05;;;;;;;3.38;2.10;;;;;;;26.21;39.01;94774.97;4158507;28;20061;-68
2022/08/03 08:37:06;;;;;;;3.70;2.00;;;;;;;25.99;39.17;94777.72;4175829;28;20144;-72
2022/08/03 08:39:08;;;;;;;4.75;1.90;;;;;;;26.00;39.07;94778.50;4153956;28;20360;-69
2022/08/03 08:41:11;;;;;;;5.25;2.08;;;;;;;26.00;39.16;94767.78;4134586;28;20710;-68
2022/08/03 08:43:12;;;;;;;3.40;2.08;;;;;;;26.14;39.04;94785.09;4157670;28;20104;-71
2022/08/03 08:45:14;;;;;;;4.32;2.00;;;;;;;26.32;38.04;94765.13;4176018;28;20049;-68
2022/08/03 08:47:18;;;;;;;3.63;2.22;;;;;;;26.46;37.52;94773.56;4173936;28;20111;-68
2022/08/03 08:49:22;;;;;;;3.75;2.28;;;;;;;26.38;37.49;94774.84;4158546;28;20074;-68
2022/08/03 08:51:29;;;;;;;2.65;1.90;;;;;;;26.52;37.54;94770.66;4176347;28;20402;-69
2022/08/03 08:53:52;;;;;;;2.50;1.70;;;;;;;26.67;37.24;94769.16;4160814;28;20083;-68
2022/08/03 08:55:59;;;;;;;3.05;2.00;;;;;;;26.64;37.21;94764.31;4175416;28;20198;-68
2022/08/03 08:58:04;;;;;;;6.28;2.22;;;;;;;26.78;37.24;94765.50;4170100;28;20084;-70
2022/08/03 09:00:09;;;;;;;3.30;2.00;;;;;;;26.85;37.95;94758.00;4157895;28;20041;-68
2022/08/03 09:02:11;;;;;;;2.88;2.38;;;;;;;26.99;38.14;94757.53;4176050;28;20049;-70
2022/08/03 09:04:13;;;;;;;5.47;2.42;;;;;;;27.20;37.74;94753.09;4157173;28;20128;-67
2022/08/03 09:06:15;;;;;;;4.15;2.40;;;;;;;27.40;37.93;94747.81;4175684;28;20519;-68
2022/08/03 09:08:17;;;;;;;7.43;2.10;;;;;;;27.64;37.34;94753.56;4175262;28;20248;-67
2022/08/03 09:10:20;;;;;;;4.93;2.15;;;;;;;27.86;36.42;94755.25;4157235;28;20449;-68
2022/08/03 09:12:22;;;;;;;6.55;2.08;;;;;;;28.05;36.23;94755.53;4175909;28;20060;-68
2022/08/03 09:14:43;;;;;;;4.68;1.88;;;;;;;28.19;35.76;94760.13;4175676;28;20076;-68
2022/08/03 09:17:05;;;;;;;4.45;2.00;;;;;;;28.33;35.60;94755.03;4175744;28;20456;-68
2022/08/03 09:19:14;;;;;;;4.78;2.00;;;;;;;28.50;35.02;94754.81;4174880;28;20060;-67
2022/08/03 09:21:25;;;;;;;3.67;2.30;;;;;;;28.52;35.06;94763.44;4174584;28;20049;-68
2022/08/03 09:23:50;;;;;;;2.17;1.80;;;;;;;28.62;34.42;94751.81;4156067;28;20064;-67
2022/08/03 09:26:03;;;;;;;3.13;2.30;;;;;;;28.54;34.07;94755.06;4155850;28;20108;-68
2022/08/03 09:28:10;;;;;;;5.70;2.00;;;;;;;28.05;34.63;94759.06;4173598;28;20045;-69
2022/08/03 09:30:16;;;;;;;3.63;1.90;;;;;;;27.55;35.18;94752.44;4173737;28;20060;-68
2022/08/03 09:32:36;;;;;;;6.40;2.08;;;;;;;27.35;35.74;94745.91;4150528;28;20428;-68
2022/08/03 09:34:37;;;;;;;2.25;1.80;;;;;;;27.48;35.13;94749.19;4165563;28;20056;-67
2022/08/03 09:36:41;;;;;;;4.32;2.10;;;;;;;27.58;35.84;94757.31;4137698;28;20061;-67
2022/08/03 09:39:01;;;;;;;3.15;1.80;;;;;;;27.53;35.03;94746.50;4156242;28;20472;-67
2022/08/03 09:41:16;;;;;;;4.43;2.20;;;;;;;27.74;35.21;94748.19;4174616;28;20126;-68
2022/08/03 09:43:19;;;;;;;5.75;2.50;;;;;;;28.09;35.35;94757.44;4175517;28;20128;-70
2022/08/03 09:45:27;;;;;;;3.87;1.90;;;;;;;27.96;34.63;94761.47;4141234;28;20127;-67
2022/08/03 09:47:33;;;;;;;3.47;2.13;;;;;;;27.99;34.52;94760.13;4144921;28;20373;-68
2022/08/03 09:49:36;;;;;;;3.05;2.00;;;;;;;28.14;34.47;94735.91;4157047;28;20113;-68
2022/08/03 09:51:39;;;;;;;3.38;2.10;;;;;;;28.11;34.82;94757.97;4157581;28;20049;-68
2022/08/03 09:54:03;;;;;;;2.90;2.23;;;;;;;27.98;34.76;94753.09;4160729;28;20060;-68
2022/08/03 09:56:09;;;;;;;2.53;1.67;;;;;;;27.82;34.90;94746.06;4141666;28;20053;-68
2022/08/03 09:58:31;;;;;;;5.10;2.13;;;;;;;27.82;34.98;94744.19;4165627;28;20129;-70
2022/08/03 10:00:55;;;;;;;2.30;1.75;;;;;;;27.87;34.30;94743.41;4163895;28;20211;-67